South AfricaFixed distance
N12 Ultra Marathon
3 May2025
Distance
50km
Finishers
1,031831 men200 women
Winning time
2:52:00h
Median pace
9.57km/h
Pace distribution
1,031 finishers · 6.22–17.44 km/h · mean 9.96
Every finisher ran the same 50 km course, so these paces are directly comparable.
Histogram of finisher pace. 1,031 finishers ranged from 6.22 to 17.44 kilometres per hour, with a mean of 9.96 and a median of 9.57. The busiest band is 8.0 to 8.5 kilometres per hour, with 145 finishers.
Results
Ranks 801–850 of 1,031
| Rank | Runner | Time | Pace | Cat. | Placing |
|---|---|---|---|---|---|
| 802 | Team Vitality Club CG | 5:54:43h | 8.46 | M45 | 677th M · 107th M45 |
| 803 | Team Vitality Club CG | 5:54:49h | 8.46 | — | 678th M |
| 804 | Vryburg Multisport Club | 5:54:52h | 8.45 | W23 | 125th F · 8th W23 |
| 805 | Makhudutumaga AC | 5:55:16h | 8.44 | — | 126th F |
| 806 | 5:55:40h | 8.44 | M35 | 679th M · 88th M35 | |
| 807 | 5:56:21h | 8.42 | M45 | 680th M · 108th M45 | |
| 808 | Sibanye Stillwater AC | 5:56:24h | 8.42 | M35 | 681st M · 89th M35 |
| 808 | Mogale Citizens AC | 5:56:24h | 8.42 | — | 681st M |
| 810 | Pretoria Military Mara... | 5:56:43h | 8.41 | W40 | 127th F · 26th W40 |
| 811 | Soweto Cabal AC | 5:56:44h | 8.41 | W40 | 128th F · 27th W40 |
| 812 | Team Vitality Atletic ... | 5:56:45h | 8.41 | M50 | 683rd M · 74th M50 |
| 813 | Multichoice AC | 5:56:51h | 8.41 | M40 | 684th M · 128th M40 |
| 814 | Multichoice AC | 5:56:51h | 8.41 | M35 | 684th M · 90th M35 |
| 815 | Meyerton AC | 5:57:16h | 8.40 | W45 | 129th F · 12th W45 |
| 816 | Meyerton AC | 5:57:18h | 8.40 | — | 130th F |
| 817 | Team Vitality Atletic ... | 5:57:22h | 8.39 | — | 686th M |
| 818 | Absa Group Running Club | 5:57:35h | 8.39 | — | 687th M |
| 819 | Itumeleng AC | 5:57:41h | 8.39 | M35 | 688th M · 91st M35 |
| 820 | Panorama Running Club | 5:58:05h | 8.38 | — | 131st F |
| 821 | Run Zone AC | 5:58:08h | 8.38 | W50 | 132nd F · 17th W50 |
| 822 | Mogale Citizens AC | 5:58:41h | 8.36 | M45 | 689th M · 109th M45 |
| 823 | Kimberley Harriers Roa... | 5:58:42h | 8.36 | M45 | 690th M · 110th M45 |
| 824 | Sapg AC | 5:58:42h | 8.36 | M45 | 690th M · 110th M45 |
| 825 | Brotherhood AC | 5:58:55h | 8.36 | M45 | 692nd M · 112th M45 |
| 826 | Bella'S Athletics Club | 5:58:58h | 8.36 | M40 | 693rd M · 129th M40 |
| 827 | Fanatics Racing Club | 5:59:03h | 8.36 | — | 694th M |
| 828 | Fanatics Racing Club | 5:59:04h | 8.36 | M50 | 695th M · 75th M50 |
| 829 | Team Vitality Club CG | 5:59:23h | 8.35 | — | 133rd F |
| 830 | Sweet Soles AC | 5:59:40h | 8.34 | M40 | 696th M · 130th M40 |
| 831 | 5:59:42h | 8.34 | — | 697th M | |
| 832 | 6:00:03h | 8.33 | — | 134th F | |
| 833 | Team Vitality Atletic ... | 6:00:04h | 8.33 | M40 | 698th M · 131st M40 |
| 834 | Team Vitality Atletic ... | 6:00:04h | 8.33 | W35 | 135th F · 21st W35 |
| 835 | Rand Road Warriors | 6:00:08h | 8.33 | M60 | 699th M · 15th M60 |
| 836 | Impala Marathon Club NWN | 6:00:12h | 8.33 | — | 136th F |
| 837 | 6:00:16h | 8.33 | — | 700th M | |
| 838 | 6:00:16h | 8.33 | — | 700th M | |
| 839 | Emfuleni AC | 6:00:17h | 8.33 | M45 | 702nd M · 113th M45 |
| 840 | 6:00:17h | 8.33 | M50 | 702nd M · 76th M50 | |
| 841 | Kuruman Running Club | 6:00:17h | 8.33 | — | 702nd M |
| 842 | Fanatics Racing Club | 6:00:27h | 8.32 | M40 | 705th M · 132nd M40 |
| 843 | Bert`S Bricks AC | 6:00:28h | 8.32 | W23 | 137th F · 9th W23 |
| 844 | Inkamana AC | 6:00:29h | 8.32 | W40 | 138th F · 28th W40 |
| 845 | Johannesburg Harriers AC | 6:00:29h | 8.32 | — | 138th F |
| 845 | 6:00:29h | 8.32 | — | 706th M | |
| 847 | Nedbank Running Club CG | 6:00:29h | 8.32 | — | 706th M |
| 848 | Team Vitality Club CG | 6:00:35h | 8.32 | M40 | 708th M · 133rd M40 |
| 849 | Anglo RPM Marathon Club | 6:00:54h | 8.31 | M40 | 709th M · 134th M40 |
| 850 | Jeppe Quondam AC | 6:01:02h | 8.31 | W65 | 140th F · 1st W65 |
| 851 | Irene Athletics Club | 6:01:13h | 8.30 | M40 | 710th M · 135th M40 |
- 802Team Vitality Club CG677th M · 107th M45Time5:54:43hPace8.46Cat.M45
- 803Team Vitality Club CG678th MTime5:54:49hPace8.46
- 804Vryburg Multisport Club125th F · 8th W23Time5:54:52hPace8.45Cat.W23
- 805Makhudutumaga AC126th FTime5:55:16hPace8.44
- 806679th M · 88th M35Time5:55:40hPace8.44Cat.M35
- 807680th M · 108th M45Time5:56:21hPace8.42Cat.M45
- 808Sibanye Stillwater AC681st M · 89th M35Time5:56:24hPace8.42Cat.M35
- 808Mogale Citizens AC681st MTime5:56:24hPace8.42
- 810Pretoria Military Mara...127th F · 26th W40Time5:56:43hPace8.41Cat.W40
- 811Soweto Cabal AC128th F · 27th W40Time5:56:44hPace8.41Cat.W40
- 812Team Vitality Atletic ...683rd M · 74th M50Time5:56:45hPace8.41Cat.M50
- 813Multichoice AC684th M · 128th M40Time5:56:51hPace8.41Cat.M40
- 814Multichoice AC684th M · 90th M35Time5:56:51hPace8.41Cat.M35
- 815Meyerton AC129th F · 12th W45Time5:57:16hPace8.40Cat.W45
- 816Meyerton AC130th FTime5:57:18hPace8.40
- 817Team Vitality Atletic ...686th MTime5:57:22hPace8.39
- 818Absa Group Running Club687th MTime5:57:35hPace8.39
- 819Itumeleng AC688th M · 91st M35Time5:57:41hPace8.39Cat.M35
- 820Panorama Running Club131st FTime5:58:05hPace8.38
- 821Run Zone AC132nd F · 17th W50Time5:58:08hPace8.38Cat.W50
- 822Mogale Citizens AC689th M · 109th M45Time5:58:41hPace8.36Cat.M45
- 823Kimberley Harriers Roa...690th M · 110th M45Time5:58:42hPace8.36Cat.M45
- 824Sapg AC690th M · 110th M45Time5:58:42hPace8.36Cat.M45
- 825Brotherhood AC692nd M · 112th M45Time5:58:55hPace8.36Cat.M45
- 826Bella'S Athletics Club693rd M · 129th M40Time5:58:58hPace8.36Cat.M40
- 827Fanatics Racing Club694th MTime5:59:03hPace8.36
- 828Fanatics Racing Club695th M · 75th M50Time5:59:04hPace8.36Cat.M50
- 829Team Vitality Club CG133rd FTime5:59:23hPace8.35
- 830Sweet Soles AC696th M · 130th M40Time5:59:40hPace8.34Cat.M40
- 831697th MTime5:59:42hPace8.34
- 832134th FTime6:00:03hPace8.33
- 833Team Vitality Atletic ...698th M · 131st M40Time6:00:04hPace8.33Cat.M40
- 834Team Vitality Atletic ...135th F · 21st W35Time6:00:04hPace8.33Cat.W35
- 835Rand Road Warriors699th M · 15th M60Time6:00:08hPace8.33Cat.M60
- 836Impala Marathon Club NWN136th FTime6:00:12hPace8.33
- 837700th MTime6:00:16hPace8.33
- 838700th MTime6:00:16hPace8.33
- 839Emfuleni AC702nd M · 113th M45Time6:00:17hPace8.33Cat.M45
- 840702nd M · 76th M50Time6:00:17hPace8.33Cat.M50
- 841Kuruman Running Club702nd MTime6:00:17hPace8.33
- 842Fanatics Racing Club705th M · 132nd M40Time6:00:27hPace8.32Cat.M40
- 843Bert`S Bricks AC137th F · 9th W23Time6:00:28hPace8.32Cat.W23
- 844Inkamana AC138th F · 28th W40Time6:00:29hPace8.32Cat.W40
- 845Johannesburg Harriers AC138th FTime6:00:29hPace8.32
- 845706th MTime6:00:29hPace8.32
- 847Nedbank Running Club CG706th MTime6:00:29hPace8.32
- 848Team Vitality Club CG708th M · 133rd M40Time6:00:35hPace8.32Cat.M40
- 849Anglo RPM Marathon Club709th M · 134th M40Time6:00:54hPace8.31Cat.M40
- 850Jeppe Quondam AC140th F · 1st W65Time6:01:02hPace8.31Cat.W65
- 851Irene Athletics Club710th M · 135th M40Time6:01:13hPace8.30Cat.M40
Showing ranks 801–850 of 1,031